Time;durP1;ratioP1;P1;durP2;ratioP2;P2;SDS_P1;SDS_P2;PMS_P1;PMS_P2;Temp;Humidity;BMP_temperature;BMP_pressure;BME280_temperature;BME280_humidity;BME280_pressure;Samples;Min_cycle;Max_cycle;Signal;HPM_P1;HPM_P2
2021/08/31 00:01:57;;;;;;;33.95;21.38;;;;;;;14.90;100.00;102222.59;5083175;28;20034;-64
2021/08/31 00:04:23;;;;;;;34.55;21.55;;;;;;;14.85;100.00;102214.53;5082721;28;20544;-64
2021/08/31 00:06:50;;;;;;;34.10;22.95;;;;;;;14.89;100.00;102226.13;5084311;28;20386;-64
2021/08/31 00:09:15;;;;;;;33.55;22.67;;;;;;;14.93;100.00;102219.94;5063700;28;20059;-68
2021/08/31 00:11:42;;;;;;;33.22;22.10;;;;;;;14.93;100.00;102230.59;5084674;28;20466;-67
2021/08/31 00:14:07;;;;;;;35.15;22.48;;;;;;;14.97;100.00;102224.44;5081426;28;20024;-66
2021/08/31 00:16:32;;;;;;;34.03;22.92;;;;;;;14.94;100.00;102225.28;5083772;28;20020;-68
2021/08/31 00:18:58;;;;;;;34.58;22.50;;;;;;;14.93;100.00;102227.94;5083102;28;20031;-66
2021/08/31 00:21:23;;;;;;;36.03;22.90;;;;;;;14.94;100.00;102232.38;5082857;28;20029;-69
2021/08/31 00:23:48;;;;;;;35.50;22.65;;;;;;;14.91;100.00;102235.91;5084117;28;20378;-66
2021/08/31 00:26:14;;;;;;;33.22;22.35;;;;;;;14.88;100.00;102235.91;5080982;28;20016;-68
2021/08/31 00:28:39;;;;;;;36.15;23.48;;;;;;;14.85;100.00;102235.84;5084555;28;20028;-63
2021/08/31 00:31:04;;;;;;;35.33;22.67;;;;;;;14.86;100.00;102231.44;5081620;28;20024;-68
2021/08/31 00:33:30;;;;;;;35.22;23.65;;;;;;;14.85;100.00;102230.50;5082842;28;20051;-62
2021/08/31 00:35:57;;;;;;;35.25;23.10;;;;;;;14.92;100.00;102236.78;5082441;28;20076;-71
2021/08/31 00:38:22;;;;;;;33.53;22.85;;;;;;;14.90;100.00;102233.25;5082118;28;20463;-68
2021/08/31 00:40:48;;;;;;;34.92;23.30;;;;;;;14.89;100.00;102242.97;5083863;28;20051;-69
2021/08/31 00:43:13;;;;;;;34.92;23.38;;;;;;;14.91;100.00;102235.91;5080883;28;20074;-64
2021/08/31 00:45:38;;;;;;;35.05;23.25;;;;;;;14.89;100.00;102242.97;5084056;28;20024;-68
2021/08/31 00:48:04;;;;;;;35.28;23.02;;;;;;;14.93;100.00;102244.78;5081459;28;20027;-64
2021/08/31 00:50:29;;;;;;;34.30;22.83;;;;;;;14.88;100.00;102242.97;5082831;28;20356;-60
2021/08/31 00:52:54;;;;;;;36.47;23.95;;;;;;;14.87;100.00;102236.75;5082599;28;20016;-72
2021/08/31 00:55:20;;;;;;;38.30;23.55;;;;;;;14.84;100.00;102238.50;5081704;28;20036;-72
2021/08/31 00:57:45;;;;;;;35.92;23.50;;;;;;;14.89;100.00;102245.63;5084252;28;20017;-72
2021/08/31 01:00:13;;;;;;;37.33;24.20;;;;;;;14.92;100.00;102244.78;5080830;28;20099;-72
2021/08/31 01:02:40;;;;;;;34.00;22.92;;;;;;;14.92;100.00;102245.66;5084395;28;20036;-69
2021/08/31 01:05:06;;;;;;;34.58;23.88;;;;;;;14.89;100.00;102247.44;5081280;28;20119;-71
2021/08/31 01:07:32;;;;;;;34.67;22.92;;;;;;;14.89;100.00;102250.09;5082691;28;20060;-72
2021/08/31 01:10:02;;;;;;;36.22;24.25;;;;;;;14.89;100.00;102242.97;5082358;28;20040;-70
2021/08/31 01:12:27;;;;;;;36.15;24.33;;;;;;;14.87;100.00;102255.41;5082374;28;20024;-70
2021/08/31 01:14:54;;;;;;;35.28;23.67;;;;;;;14.83;100.00;102248.25;5082944;28;20532;-70
2021/08/31 01:17:27;;;;;;;35.30;24.17;;;;;;;14.86;100.00;102252.72;5081130;28;20037;-71
2021/08/31 01:19:53;;;;;;;36.97;24.15;;;;;;;14.89;100.00;102253.63;5083300;28;20466;-70
2021/08/31 01:22:18;;;;;;;35.78;24.17;;;;;;;14.92;100.00;102253.66;5080696;28;20063;-72
2021/08/31 01:24:45;;;;;;;36.05;24.25;;;;;;;14.95;100.00;102247.47;5083877;28;20071;-70
2021/08/31 01:27:11;;;;;;;36.13;24.00;;;;;;;14.96;100.00;102250.13;5080596;28;20055;-71
2021/08/31 01:29:37;;;;;;;36.72;24.77;;;;;;;15.01;100.00;102254.63;5083440;28;20024;-70
2021/08/31 01:32:04;;;;;;;36.47;24.85;;;;;;;15.04;100.00;102257.31;5081560;28;20070;-63
2021/08/31 01:34:29;;;;;;;34.60;24.00;;;;;;;15.13;100.00;102257.38;5082312;28;20028;-64
2021/08/31 01:36:55;;;;;;;35.88;24.25;;;;;;;15.12;100.00;102260.94;5082338;28;20119;-62
2021/08/31 01:39:21;;;;;;;34.92;24.20;;;;;;;15.10;100.00;102260.00;5081052;28;20048;-62
2021/08/31 01:41:46;;;;;;;36.22;25.00;;;;;;;15.06;100.00;102255.56;5083794;28;20535;-60
2021/08/31 01:44:12;;;;;;;37.30;24.42;;;;;;;15.06;100.00;102258.22;5079798;28;20048;-60
2021/08/31 01:46:38;;;;;;;35.58;24.05;;;;;;;15.10;100.00;102260.00;5083356;28;20020;-62
2021/08/31 01:49:03;;;;;;;36.83;24.65;;;;;;;15.03;100.00;102264.41;5084394;28;20025;-61
2021/08/31 01:51:28;;;;;;;36.97;24.73;;;;;;;15.07;100.00;102267.97;5087662;28;20028;-62
2021/08/31 01:53:54;;;;;;;35.95;24.00;;;;;;;15.11;100.00;102270.66;5084050;28;20028;-61
2021/08/31 01:56:19;;;;;;;35.03;24.40;;;;;;;15.05;100.00;102277.75;5085139;28;20047;-66
2021/08/31 01:58:44;;;;;;;36.30;24.60;;;;;;;15.02;100.00;102275.94;5086314;28;20029;-60
2021/08/31 02:01:10;;;;;;;37.03;24.35;;;;;;;14.98;100.00;102264.38;5085379;28;20012;-61
2021/08/31 02:03:35;;;;;;;37.03;24.88;;;;;;;15.02;100.00;102269.72;5084996;28;20021;-64
2021/08/31 02:06:01;;;;;;;36.08;25.15;;;;;;;14.98;100.00;102272.38;5086459;28;20016;-62
2021/08/31 02:08:26;;;;;;;36.05;24.55;;;;;;;14.97;100.00;102273.22;5083920;28;20459;-62
2021/08/31 02:10:51;;;;;;;39.55;26.42;;;;;;;14.99;100.00;102268.81;5087221;28;20057;-61
2021/08/31 02:13:17;;;;;;;37.15;24.88;;;;;;;14.99;100.00;102270.59;5084016;28;20029;-61
2021/08/31 02:15:42;;;;;;;38.42;25.55;;;;;;;15.04;100.00;102273.28;5086367;28;20466;-71
2021/08/31 02:18:08;;;;;;;36.85;25.23;;;;;;;15.04;100.00;102275.94;5085419;28;20020;-67
2021/08/31 02:20:34;;;;;;;37.92;25.92;;;;;;;14.96;100.00;102274.09;5084579;28;20043;-67
2021/08/31 02:23:00;;;;;;;36.00;25.08;;;;;;;14.92;100.00;102274.06;5086658;28;20024;-69
2021/08/31 02:25:25;;;;;;;36.78;25.50;;;;;;;14.92;100.00;102274.94;5083145;28;20074;-67
2021/08/31 02:27:51;;;;;;;38.58;26.13;;;;;;;14.96;100.00;102282.09;5087077;28;20028;-67
2021/08/31 02:30:16;;;;;;;36.97;25.33;;;;;;;14.99;100.00;102271.47;5083223;28;20020;-60
2021/08/31 02:32:44;;;;;;;36.92;26.35;;;;;;;14.97;100.00;102278.56;5082854;28;20021;-66
2021/08/31 02:35:10;;;;;;;36.45;25.70;;;;;;;14.93;100.00;102282.06;5085274;28;20036;-64
2021/08/31 02:37:35;;;;;;;40.00;27.30;;;;;;;14.90;100.00;102284.72;5084528;28;20031;-70
2021/08/31 02:40:01;;;;;;;38.05;26.27;;;;;;;14.87;100.00;102275.78;5085391;28;20035;-72
2021/08/31 02:42:26;;;;;;;39.88;27.35;;;;;;;14.81;100.00;102281.97;5083606;28;20043;-66
2021/08/31 02:44:51;;;;;;;37.55;26.30;;;;;;;14.85;100.00;102278.44;5084005;28;20443;-64
2021/08/31 02:47:17;;;;;;;40.58;28.27;;;;;;;14.86;100.00;102279.34;5086389;28;20558;-65
2021/08/31 02:49:43;;;;;;;41.03;27.42;;;;;;;14.81;100.00;102277.53;5083446;28;20077;-67
2021/08/31 02:52:08;;;;;;;39.85;27.83;;;;;;;14.78;100.00;102277.50;5085022;28;20094;-72
2021/08/31 02:54:33;;;;;;;40.17;27.65;;;;;;;14.78;100.00;102281.91;5084345;28;20081;-64
2021/08/31 02:56:59;;;;;;;39.90;28.08;;;;;;;14.76;100.00;102276.56;5083490;28;20146;-63
2021/08/31 02:59:25;;;;;;;39.75;27.20;;;;;;;14.74;100.00;102278.34;5083323;28;20483;-67
2021/08/31 03:04:22;;;;;;;41.05;28.48;;;;;;;14.73;100.00;102279.22;5083717;28;20118;-65
2021/08/31 03:06:47;;;;;;;39.55;28.23;;;;;;;14.71;100.00;102286.31;5084628;28;20052;-59
2021/08/31 03:09:12;;;;;;;38.95;28.23;;;;;;;14.70;100.00;102283.63;5084421;28;20027;-64
2021/08/31 03:11:38;;;;;;;38.63;27.15;;;;;;;14.72;100.00;102287.19;5083282;28;20107;-63
2021/08/31 03:14:03;;;;;;;39.75;27.85;;;;;;;14.68;100.00;102283.63;5085608;28;20039;-63
2021/08/31 03:16:28;;;;;;;40.30;28.52;;;;;;;14.68;100.00;102275.63;5082581;28;20046;-62
2021/08/31 03:18:54;;;;;;;42.58;28.98;;;;;;;14.68;100.00;102282.69;5085230;28;20440;-64
2021/08/31 03:21:20;;;;;;;40.63;29.17;;;;;;;14.64;100.00;102281.78;5083308;28;20020;-59
2021/08/31 03:23:45;;;;;;;41.70;29.60;;;;;;;14.70;100.00;102284.50;5084121;28;20379;-72
2021/08/31 03:26:10;;;;;;;40.08;27.95;;;;;;;14.73;100.00;102283.66;5084250;28;20016;-72
2021/08/31 03:28:36;;;;;;;40.45;28.17;;;;;;;14.72;100.00;102281.84;5082513;28;20109;-71
2021/08/31 03:31:01;;;;;;;41.80;30.02;;;;;;;14.71;100.00;102286.31;5085617;28;20024;-71
2021/08/31 03:33:26;;;;;;;39.97;28.23;;;;;;;14.69;100.00;102289.81;5081927;28;20020;-72
2021/08/31 03:35:52;;;;;;;39.08;27.10;;;;;;;14.69;100.00;102288.03;5084625;28;20497;-71
2021/08/31 03:38:17;;;;;;;39.35;27.67;;;;;;;14.72;100.00;102290.75;5083353;28;20024;-72
2021/08/31 03:40:42;;;;;;;40.30;27.23;;;;;;;14.72;100.00;102287.19;5083635;28;20096;-72
2021/08/31 03:43:08;;;;;;;39.40;28.65;;;;;;;14.74;100.00;102290.78;5084171;28;20487;-71
2021/08/31 03:45:33;;;;;;;42.05;28.30;;;;;;;14.71;100.00;102285.38;5081947;28;20071;-72
2021/08/31 03:47:58;;;;;;;40.15;28.77;;;;;;;14.66;100.00;102287.13;5085231;28;20065;-71
2021/08/31 03:50:24;;;;;;;40.97;28.25;;;;;;;14.66;100.00;102281.81;5082408;28;20017;-71
2021/08/31 03:52:49;;;;;;;38.67;27.27;;;;;;;14.61;100.00;102287.97;5083879;28;20111;-69
2021/08/31 03:55:15;;;;;;;39.78;27.65;;;;;;;14.66;100.00;102288.00;5083497;28;20056;-72
2021/08/31 03:57:41;;;;;;;39.80;27.63;;;;;;;14.59;100.00;102287.03;5082595;28;20020;-70
2021/08/31 04:00:07;;;;;;;41.50;28.67;;;;;;;14.60;100.00;102283.47;5084619;28;20024;-71
2021/08/31 04:02:32;;;;;;;40.63;28.02;;;;;;;14.61;100.00;102293.28;5081341;28;20025;-72
2021/08/31 04:04:58;;;;;;;40.08;28.80;;;;;;;14.57;100.00;102291.44;5085156;28;20040;-72
2021/08/31 04:07:23;;;;;;;38.33;27.88;;;;;;;14.57;100.00;102288.78;5081838;28;20103;-70
2021/08/31 04:09:48;;;;;;;40.83;28.25;;;;;;;14.61;100.00;102298.63;5083287;28;20035;-60
2021/08/31 04:12:14;;;;;;;40.95;28.70;;;;;;;14.59;100.00;102287.03;5082601;28;20101;-60
2021/08/31 04:14:39;;;;;;;39.22;28.55;;;;;;;14.62;100.00;102288.84;5081815;28;20040;-61
2021/08/31 04:17:05;;;;;;;40.70;28.23;;;;;;;14.63;100.00;102295.97;5084631;28;20047;-60
2021/08/31 04:19:30;;;;;;;37.92;27.10;;;;;;;14.68;100.00;102304.00;5081353;28;20017;-60
2021/08/31 04:21:55;;;;;;;39.97;28.63;;;;;;;14.66;100.00;102303.97;5084158;28;20040;-59
2021/08/31 04:24:20;;;;;;;37.75;28.17;;;;;;;14.64;100.00;102311.94;5082280;28;20023;-62
2021/08/31 04:26:46;;;;;;;39.10;27.48;;;;;;;14.69;100.00;102313.78;5082718;28;20048;-60
2021/08/31 04:29:11;;;;;;;36.72;26.85;;;;;;;14.66;100.00;102311.97;5083728;28;20082;-61
2021/08/31 04:31:37;;;;;;;37.58;26.35;;;;;;;14.61;100.00;102305.69;5081704;28;20448;-61
2021/08/31 04:34:02;;;;;;;38.80;27.60;;;;;;;14.53;100.00;102313.56;5084244;28;20028;-62
2021/08/31 04:36:27;;;;;;;36.67;27.55;;;;;;;14.56;100.00;102318.03;5080925;28;20024;-60
2021/08/31 04:38:53;;;;;;;40.88;28.27;;;;;;;14.56;100.00;102321.59;5083714;28;20039;-63
2021/08/31 04:41:18;;;;;;;38.15;27.65;;;;;;;14.54;100.00;102330.44;5082315;28;20031;-60
2021/08/31 04:43:44;;;;;;;39.70;27.98;;;;;;;14.54;100.00;102331.31;5082032;28;20044;-59
2021/08/31 04:46:09;;;;;;;41.58;28.33;;;;;;;14.55;100.00;102317.16;5083420;28;20020;-59
2021/08/31 04:48:36;;;;;;;37.85;26.98;;;;;;;14.58;100.00;102326.94;5080991;28;20035;-60
2021/08/31 04:51:01;;;;;;;37.67;27.67;;;;;;;14.50;100.00;102337.47;5084347;28;20065;-72
2021/08/31 04:53:27;;;;;;;38.78;27.33;;;;;;;14.51;100.00;102333.06;5081015;28;20033;-73
2021/08/31 04:55:52;;;;;;;39.58;28.40;;;;;;;14.55;100.00;102338.44;5083188;28;20040;-71
2021/08/31 04:58:17;;;;;;;37.75;27.52;;;;;;;14.54;100.00;102344.63;5082070;28;20024;-70
2021/08/31 05:00:43;;;;;;;39.88;27.70;;;;;;;14.54;100.00;102352.59;5082187;28;20023;-71
2021/08/31 05:03:08;;;;;;;40.35;26.60;;;;;;;14.53;100.00;102348.16;5083331;28;20074;-72
2021/08/31 05:05:33;;;;;;;39.30;26.45;;;;;;;14.56;100.00;102355.28;5062752;28;20024;-70
2021/08/31 05:07:59;;;;;;;37.40;26.33;;;;;;;14.53;100.00;102361.44;5084249;28;20060;-72
2021/08/31 05:10:24;;;;;;;38.33;26.95;;;;;;;14.56;100.00;102365.91;5081075;28;20040;-72
2021/08/31 05:12:49;;;;;;;37.03;25.67;;;;;;;14.56;100.00;102366.84;5083039;28;20494;-72
2021/08/31 05:15:15;;;;;;;37.40;26.35;;;;;;;14.57;100.00;102367.72;5082268;28;20032;-72
2021/08/31 05:17:40;;;;;;;39.40;26.17;;;;;;;14.60;100.00;102368.63;5081292;28;20025;-73
2021/08/31 05:20:07;;;;;;;36.92;26.17;;;;;;;14.61;100.00;102367.81;5083836;28;20100;-70
2021/08/31 05:22:33;;;;;;;37.83;26.13;;;;;;;14.61;100.00;102366.88;5082053;28;20035;-73
2021/08/31 05:25:01;;;;;;;36.40;26.17;;;;;;;14.60;100.00;102373.97;5087933;28;20028;-73
2021/08/31 05:27:26;;;;;;;38.88;26.70;;;;;;;14.64;100.00;102369.63;5084812;28;20048;-70
2021/08/31 05:29:52;;;;;;;37.17;25.17;;;;;;;14.70;100.00;102374.13;5086767;28;20063;-72
2021/08/31 05:32:18;;;;;;;35.78;25.70;;;;;;;14.72;100.00;102375.94;5085826;28;20111;-73
2021/08/31 05:34:43;;;;;;;37.90;26.63;;;;;;;14.73;100.00;102376.81;5085505;28;20031;-60
2021/08/31 05:37:09;;;;;;;40.03;26.48;;;;;;;14.77;100.00;102378.63;5087242;28;20024;-62
2021/08/31 05:39:34;;;;;;;38.53;26.42;;;;;;;14.80;100.00;102381.34;5084257;28;20020;-63
2021/08/31 05:42:05;;;;;;;39.55;27.33;;;;;;;14.88;100.00;102378.75;5087796;28;20027;-60
2021/08/31 05:44:31;;;;;;;37.50;26.27;;;;;;;14.93;100.00;102379.69;5082534;28;20024;-63
2021/08/31 05:46:56;;;;;;;38.03;26.58;;;;;;;15.02;100.00;102382.44;5086296;28;20471;-63
2021/08/31 05:49:21;;;;;;;39.30;26.60;;;;;;;15.06;100.00;102383.38;5084425;28;20027;-68
2021/08/31 05:51:47;;;;;;;36.63;24.92;;;;;;;15.12;100.00;102383.44;5084708;28;20363;-61
2021/08/31 05:54:12;;;;;;;36.72;24.83;;;;;;;15.12;100.00;102383.44;5087540;28;20028;-59
2021/08/31 05:56:37;;;;;;;36.22;24.80;;;;;;;15.19;100.00;102392.38;5084055;28;20036;-65
2021/08/31 05:59:22;;;;;;;38.10;24.80;;;;;;;15.27;100.00;102388.91;5086687;28;20026;-61
2021/08/31 06:01:48;;;;;;;37.17;24.20;;;;;;;15.31;100.00;102389.84;5090709;28;20471;-59
2021/08/31 06:04:14;;;;;;;36.70;24.02;;;;;;;15.38;100.00;102391.69;5090384;28;20020;-60
2021/08/31 06:06:39;;;;;;;36.10;23.27;;;;;;;15.38;100.00;102388.09;5093281;28;20096;-59
2021/08/31 06:09:06;;;;;;;34.58;22.50;;;;;;;15.40;100.00;102389.03;5090901;28;20019;-59
2021/08/31 06:11:36;;;;;;;36.35;23.25;;;;;;;15.39;100.00;102387.22;5093204;28;20031;-59
2021/08/31 06:14:02;;;;;;;33.53;20.83;;;;;;;15.43;100.00;102395.25;5089392;28;20024;-60
2021/08/31 06:16:27;;;;;;;32.33;19.65;;;;;;;15.45;100.00;102397.94;5088660;28;20119;-59
2021/08/31 06:18:53;;;;;;;33.10;20.45;;;;;;;15.50;100.00;102401.53;5090379;28;20525;-60
2021/08/31 06:21:18;;;;;;;31.80;19.15;;;;;;;15.56;100.00;102400.72;5091742;28;20035;-59
2021/08/31 06:23:43;;;;;;;31.90;19.15;;;;;;;15.57;100.00;102406.03;5086254;28;20401;-59
2021/08/31 06:26:09;;;;;;;33.13;18.58;;;;;;;15.60;100.00;102414.06;5089742;28;20060;-59
2021/08/31 06:28:34;;;;;;;32.47;19.45;;;;;;;15.62;100.00;102408.75;5089213;28;20020;-60
2021/08/31 06:30:59;;;;;;;33.22;19.58;;;;;;;15.64;100.00;102405.22;5091444;28;20066;-60
2021/08/31 06:33:25;;;;;;;31.55;18.80;;;;;;;15.71;100.00;102410.59;5086717;28;20020;-59
2021/08/31 06:35:50;;;;;;;33.92;20.08;;;;;;;15.71;100.00;102414.13;5086472;28;20062;-58
2021/08/31 06:38:16;;;;;;;33.60;19.95;;;;;;;15.75;100.00;102415.06;5090700;28;20036;-59
2021/08/31 06:40:41;;;;;;;32.72;19.52;;;;;;;15.78;100.00;102412.44;5089199;28;20123;-58
2021/08/31 06:43:07;;;;;;;33.90;20.30;;;;;;;15.80;100.00;102411.59;5091803;28;20131;-59
2021/08/31 06:45:32;;;;;;;33.67;19.27;;;;;;;15.88;99.41;102411.66;5088896;28;20020;-60
2021/08/31 06:47:57;;;;;;;33.40;18.90;;;;;;;16.01;98.40;102408.16;5088614;28;20505;-60
2021/08/31 06:50:23;;;;;;;32.65;18.77;;;;;;;16.17;97.27;102410.94;5084328;28;20023;-59
2021/08/31 06:52:48;;;;;;;31.55;18.50;;;;;;;16.21;96.41;102415.44;5087459;28;20051;-59
2021/08/31 06:55:14;;;;;;;30.67;18.00;;;;;;;16.28;95.48;102409.25;5087046;28;20513;-59
2021/08/31 06:57:40;;;;;;;30.55;17.77;;;;;;;16.39;95.64;102417.28;5069998;28;20029;-59
2021/08/31 07:00:07;;;;;;;30.25;18.00;;;;;;;16.40;93.59;102419.09;5090122;28;20024;-60
2021/08/31 07:02:32;;;;;;;32.25;17.25;;;;;;;16.53;92.02;102407.56;5089341;28;20028;-59
2021/08/31 07:04:58;;;;;;;28.92;16.60;;;;;;;16.62;91.63;102413.84;5088380;28;20665;-61
2021/08/31 07:07:23;;;;;;;27.63;15.35;;;;;;;16.69;89.49;102412.97;5086817;28;20462;-59
2021/08/31 07:09:49;;;;;;;29.08;15.65;;;;;;;16.73;88.43;102418.34;5090266;28;20039;-59
2021/08/31 07:12:14;;;;;;;29.25;15.32;;;;;;;16.81;88.66;102422.81;5089805;28;20378;-58
2021/08/31 07:14:39;;;;;;;29.35;15.75;;;;;;;16.88;87.60;102430.00;5088841;28;20120;-59
2021/08/31 07:17:05;;;;;;;28.20;15.15;;;;;;;17.02;88.20;102428.25;5088612;28;20039;-58
2021/08/31 07:19:30;;;;;;;28.00;15.00;;;;;;;17.11;86.41;102427.38;5088217;28;20059;-59
2021/08/31 07:21:56;;;;;;;30.95;15.00;;;;;;;17.21;86.17;102428.28;5089322;28;20044;-59
2021/08/31 07:24:21;;;;;;;27.27;13.65;;;;;;;17.29;83.83;102428.31;5089012;28;20459;-57
2021/08/31 07:26:47;;;;;;;27.15;13.60;;;;;;;17.29;85.02;102429.19;5087638;28;20024;-59
2021/08/31 07:29:12;;;;;;;27.58;13.35;;;;;;;17.36;83.41;102436.31;5087843;28;20031;-59
2021/08/31 07:31:38;;;;;;;26.48;13.05;;;;;;;17.34;83.15;102432.75;5090069;28;20086;-59
2021/08/31 07:34:03;;;;;;;27.30;13.27;;;;;;;17.44;83.22;102444.34;5086332;28;20028;-59
2021/08/31 07:36:28;;;;;;;25.77;12.73;;;;;;;17.46;83.31;102444.34;5089334;28;20144;-60
2021/08/31 07:38:55;;;;;;;27.13;13.07;;;;;;;17.38;82.78;102441.66;5090960;28;20564;-59
2021/08/31 07:41:21;;;;;;;28.00;13.05;;;;;;;17.43;83.26;102443.47;5088103;28;20040;-59
2021/08/31 07:43:48;;;;;;;28.17;13.48;;;;;;;17.49;83.94;102447.00;5088231;28;20093;-67
2021/08/31 07:46:13;;;;;;;25.13;12.00;;;;;;;17.58;81.81;102445.25;5087532;28;20378;-67
2021/08/31 07:48:39;;;;;;;27.90;12.48;;;;;;;17.60;81.13;102451.50;5088523;28;20016;-64
2021/08/31 07:51:04;;;;;;;25.90;12.10;;;;;;;17.64;80.79;102452.38;5087327;28;20028;-67
2021/08/31 07:53:30;;;;;;;25.65;12.20;;;;;;;17.62;80.33;102454.19;5084485;28;20029;-67
2021/08/31 07:55:55;;;;;;;26.65;12.20;;;;;;;17.64;80.46;102452.38;5081911;28;20455;-66
2021/08/31 07:58:20;;;;;;;27.20;12.07;;;;;;;17.61;80.65;102449.72;5084644;28;20024;-69
2021/08/31 08:00:46;;;;;;;26.90;11.95;;;;;;;17.57;80.75;102448.81;5081346;28;20025;-66
2021/08/31 08:03:11;;;;;;;25.02;11.45;;;;;;;17.56;81.69;102448.81;5084054;28;20031;-63
2021/08/31 08:05:36;;;;;;;27.85;12.00;;;;;;;17.58;80.67;102447.91;5082500;28;20028;-61
2021/08/31 08:08:02;;;;;;;26.23;12.10;;;;;;;17.55;81.27;102453.28;5081900;28;20020;-68
2021/08/31 08:10:27;;;;;;;26.73;12.05;;;;;;;17.63;81.64;102455.06;5084569;28;20452;-70
2021/08/31 08:12:53;;;;;;;25.50;11.18;;;;;;;17.67;80.45;102463.06;5082280;28;20020;-66
2021/08/31 08:15:20;;;;;;;25.55;11.30;;;;;;;17.72;79.58;102460.41;5083291;28;20042;-69
2021/08/31 08:17:45;;;;;;;27.75;11.90;;;;;;;17.87;79.50;102459.53;5082889;28;20020;-67
2021/08/31 08:20:11;;;;;;;26.33;11.35;;;;;;;18.02;77.96;102464.88;5083444;28;20073;-66
2021/08/31 08:22:37;;;;;;;26.25;11.18;;;;;;;18.24;75.71;102465.72;5081649;28;20033;-62
2021/08/31 08:25:04;;;;;;;25.77;11.80;;;;;;;18.46;76.35;102466.59;5084783;28;20025;-70
2021/08/31 08:27:29;;;;;;;26.25;11.32;;;;;;;18.75;74.77;102454.84;5081079;28;20037;-70
2021/08/31 08:29:55;;;;;;;24.48;10.63;;;;;;;18.89;73.30;102457.53;5084084;28;20026;-68
2021/08/31 08:32:20;;;;;;;23.13;9.68;;;;;;;18.99;71.58;102461.06;5082231;28;20115;-69
2021/08/31 08:34:45;;;;;;;24.58;10.57;;;;;;;19.13;70.58;102458.28;5082765;28;20028;-65
2021/08/31 08:37:11;;;;;;;24.15;10.40;;;;;;;19.37;70.42;102457.25;5083410;28;20474;-71
2021/08/31 08:39:37;;;;;;;23.58;10.32;;;;;;;19.61;68.74;102464.19;5081347;28;20471;-64
2021/08/31 08:42:05;;;;;;;23.60;10.15;;;;;;;19.71;66.97;102467.72;5084247;28;20070;-70
2021/08/31 08:44:30;;;;;;;24.25;9.70;;;;;;;19.70;66.65;102465.91;5081400;28;20426;-67
2021/08/31 08:46:56;;;;;;;23.60;10.20;;;;;;;19.72;67.67;102461.44;5083847;28;20073;-71
2021/08/31 08:49:21;;;;;;;23.98;10.30;;;;;;;20.08;66.01;102474.56;5081953;28;20030;-68
2021/08/31 08:51:47;;;;;;;23.58;9.63;;;;;;;20.22;65.18;102477.13;5083593;28;20029;-70
2021/08/31 08:54:13;;;;;;;23.48;9.20;;;;;;;20.04;65.86;102476.41;5083155;28;20024;-69
2021/08/31 08:56:39;;;;;;;24.20;10.10;;;;;;;19.82;65.80;102470.34;5083798;28;20028;-71
2021/08/31 08:59:04;;;;;;;23.75;9.45;;;;;;;19.69;66.94;102474.91;5083083;28;20027;-71
2021/08/31 09:01:49;;;;;;;23.50;9.75;;;;;;;19.64;68.12;102480.31;5081679;28;20387;-70
2021/08/31 09:04:17;;;;;;;24.77;9.90;;;;;;;19.45;67.87;102487.56;5081435;28;20037;-70
2021/08/31 09:06:46;;;;;;;23.58;9.40;;;;;;;19.57;68.65;102485.69;5083981;28;20047;-70
2021/08/31 09:09:12;;;;;;;22.90;10.07;;;;;;;19.59;68.42;102479.44;5081322;28;20028;-66
2021/08/31 09:11:48;;;;;;;23.23;10.23;;;;;;;19.54;69.45;102491.97;5084519;28;20039;-67
2021/08/31 09:14:17;;;;;;;24.30;10.43;;;;;;;19.60;68.85;102489.25;5081243;28;20035;-64
2021/08/31 09:16:44;;;;;;;22.83;10.00;;;;;;;19.65;68.04;102486.53;5083839;28;20108;-64
2021/08/31 09:19:11;;;;;;;25.20;11.30;;;;;;;19.49;68.06;102478.59;5080724;28;20032;-68
2021/08/31 09:21:37;;;;;;;25.30;11.45;;;;;;;19.21;69.29;102487.72;5084022;28;20078;-62
2021/08/31 09:24:02;;;;;;;26.00;11.75;;;;;;;19.13;69.57;102487.75;5081909;28;20024;-70
2021/08/31 09:26:46;;;;;;;26.88;11.38;;;;;;;19.10;70.47;102488.66;5081449;28;20112;-67
2021/08/31 09:29:19;;;;;;;25.10;11.68;;;;;;;19.18;70.66;102488.66;5080486;28;20024;-67
2021/08/31 09:31:51;;;;;;;25.35;11.82;;;;;;;19.34;70.42;102490.31;5082739;28;20020;-69
2021/08/31 09:34:32;;;;;;;;;;;;;;;20.02;68.43;102488.94;5081837;28;20115;-63
2021/08/31 09:37:25;;;;;;;24.65;11.52;;;;;;;20.44;67.53;102493.91;5081615;28;20332;-69
2021/08/31 09:40:07;;;;;;;23.55;10.10;;;;;;;20.70;65.27;102488.25;5081838;28;20064;-71
2021/08/31 09:42:34;;;;;;;24.10;10.40;;;;;;;21.19;63.96;102476.84;5080572;28;20049;-68
2021/08/31 09:45:06;;;;;;;22.15;9.30;;;;;;;21.29;61.10;102488.38;5083579;28;20024;-66
2021/08/31 09:47:37;;;;;;;22.83;9.48;;;;;;;21.37;60.19;102490.94;5081124;28;20086;-65
2021/08/31 09:50:05;;;;;;;23.58;9.20;;;;;;;21.75;60.21;102486.78;5083498;28;20423;-70
2021/08/31 09:52:30;;;;;;;21.40;9.00;;;;;;;22.08;59.19;102484.44;5081217;28;20073;-70
2021/08/31 09:54:56;;;;;;;22.52;9.55;;;;;;;22.20;58.03;102494.97;5082733;28;20413;-72
2021/08/31 09:57:30;;;;;;;22.88;9.15;;;;;;;22.35;57.46;102487.56;5082414;28;20416;-67
2021/08/31 09:59:58;;;;;;;21.83;8.82;;;;;;;22.56;56.98;102495.22;5082723;28;20115;-70
2021/08/31 10:02:24;;;;;;;23.08;8.70;;;;;;;22.42;56.40;102490.09;5082172;28;20103;-72
2021/08/31 10:04:51;;;;;;;21.80;8.32;;;;;;;22.41;57.03;102488.34;5081467;28;20396;-70
2021/08/31 10:07:19;;;;;;;22.30;9.00;;;;;;;22.43;56.41;102488.31;5082925;28;20020;-67
2021/08/31 10:09:45;;;;;;;22.25;8.77;;;;;;;23.12;54.79;102481.47;5082819;28;20033;-67
2021/08/31 10:12:12;;;;;;;22.95;8.73;;;;;;;23.08;54.61;102481.56;5087100;28;20055;-65
2021/08/31 10:14:42;;;;;;;22.10;8.90;;;;;;;22.78;55.17;102486.72;5083668;28;20028;-69
2021/08/31 10:17:10;;;;;;;23.00;8.98;;;;;;;22.28;55.42;102487.66;5083867;28;20475;-65
2021/08/31 10:19:36;;;;;;;22.60;8.90;;;;;;;21.96;56.63;102495.41;5087094;28;20031;-66
2021/08/31 10:22:01;;;;;;;21.98;8.70;;;;;;;21.70;59.03;102488.69;5084171;28;20037;-68
2021/08/31 10:24:27;;;;;;;22.75;9.02;;;;;;;21.38;58.58;102490.03;5086149;28;20083;-70
2021/08/31 10:26:52;;;;;;;22.88;9.18;;;;;;;21.11;60.86;102494.88;5085450;28;20024;-66
2021/08/31 10:29:21;;;;;;;21.83;9.43;;;;;;;21.00;60.94;102496.81;5084442;28;20021;-71
2021/08/31 10:31:49;;;;;;;22.48;9.48;;;;;;;20.98;61.89;102498.66;5086214;28;20020;-69
2021/08/31 10:34:30;;;;;;;24.23;9.90;;;;;;;21.08;63.28;102494.94;5083849;28;20040;-67
2021/08/31 10:37:18;;;;;;;23.20;10.38;;;;;;;21.17;62.85;102494.81;5084645;28;20047;-64
2021/08/31 10:39:52;;;;;;;23.65;10.80;;;;;;;21.09;62.89;102502.09;4993438;28;20066;-66
2021/08/31 10:42:23;;;;;;;23.92;10.60;;;;;;;21.29;62.85;102490.16;4993270;28;20042;-71
2021/08/31 10:44:49;;;;;;;25.13;10.98;;;;;;;21.58;61.32;102490.66;4993403;28;20073;-67
2021/08/31 10:47:16;;;;;;;23.88;10.10;;;;;;;21.85;59.99;102501.88;4993533;28;20038;-69
2021/08/31 10:49:56;;;;;;;23.40;9.82;;;;;;;22.05;60.31;102497.97;4993267;28;20493;-70
2021/08/31 10:52:46;;;;;;;25.02;10.20;;;;;;;21.99;60.63;102506.13;4993209;28;20044;-71
2021/08/31 10:55:23;;;;;;;22.73;10.13;;;;;;;21.85;60.36;102511.75;4989720;28;20135;-68
2021/08/31 10:57:50;;;;;;;24.13;10.65;;;;;;;21.76;60.85;102505.59;4992970;28;20088;-71
2021/08/31 11:00:15;;;;;;;22.60;10.32;;;;;;;21.86;60.13;102506.34;4993213;28;20056;-69
2021/08/31 11:02:46;;;;;;;22.27;10.18;;;;;;;21.84;61.29;102500.09;4993010;28;20033;-71
2021/08/31 11:05:20;;;;;;;25.27;10.93;;;;;;;21.87;59.89;102516.22;4989890;28;20513;-69
2021/08/31 11:07:47;;;;;;;24.10;10.15;;;;;;;22.42;58.95;102508.06;4992374;28;20041;-71